Hlavní strana
METAR-TAF:

METAR-TAF

Letiště :

Letiště Leoše Janáčka Ostrava

Ostrava, Česká republika

zeměpisná šířka: 49-41N, zeměpisná délka: 018-07E, výška: 256 m

Aktuální stav počasí

Zpráva byla vytvořena před 27 minutami, v 04:30 UTC
Severní vítr 1 kt
Teplota 14°C
Vlhkost vzduchu 94%
Tlak 1022 hPa
Viditelnost 10 km a více
Žádná oblačnost pod 1500 m, nevyskytují se cumulonimby.

METAR: LKMT 270430Z 36001KT CAVOK 14/13 Q1022 NOSIG

Čas: 06:57 (04:57 UTC)

Předpověď počasí

Zpráva byla vytvořena před 5 hodinami a 57 minutami, v 23:00 UTC
Předpověď platná od 27 v 00 UTC do 28 v 06 UTC
vítr z různých směrů 2 kt
Viditelnost 10 km a více
Žádná oblačnost pod 1500 m, nevyskytují se cumulonimby.
Dočasný
od 27 v 07 UTC do 27 v 17 UTC
Severoseverovýchodní vítr 10 kt
Viditelnost 10 km a více
Polojasno ve výšce 6000 ft, Vertikální cumulus.

TAF: LKMT 262300Z 2700/2806 VRB02KT CAVOK TEMPO 2707/2717 03010KT 9999 SCT060TCU

Stav a předpovědi počasí z více než 4 000 letišť (zprávy METAR a TAF).

Červené a žluté tečky na mapě představují dostupné meteorologické stanice.

Když kurzor umístíte na tečku, zobrazí se název stanice.

Pak kliknutím zobrazíte stav a předpověď počasí.

Chcete-li změnit mapu, kliknutím na zelené tlačítko se znaménkem +mapu přiblížíte, kliknutím na zelené tlačítko se znaménkem – mapu oddálíte a kliknutím na zelené šipky přejdete na sousední mapy.


METAR-TAF: